Time;durP1;ratioP1;P1;durP2;ratioP2;P2;SDS_P1;SDS_P2;PMS_P1;PMS_P2;Temp;Humidity;BMP_temperature;BMP_pressure;BME280_temperature;BME280_humidity;BME280_pressure;Samples;Min_cycle;Max_cycle;Signal;HPM_P1;HPM_P2
2021/05/02 00:02:00;;;;;;;9.85;7.72;;;9.90;99.90;;;;;;4993582;28;20047;-81
2021/05/02 00:04:26;;;;;;;11.98;8.40;;;9.70;99.90;;;;;;4977807;28;20015;-81
2021/05/02 00:06:53;;;;;;;10.27;8.25;;;10.00;99.90;;;;;;4987390;28;20023;-80
2021/05/02 00:09:18;;;;;;;10.68;8.10;;;9.60;99.90;;;;;;4994164;28;20109;-81
2021/05/02 00:11:45;;;;;;;8.50;7.65;;;10.10;99.90;;;;;;4994277;28;20105;-84
2021/05/02 00:14:10;;;;;;;12.65;8.40;;;9.70;99.90;;;;;;4991933;28;20038;-82
2021/05/02 00:16:36;;;;;;;9.40;7.35;;;9.60;99.90;;;;;;5007067;28;20476;-83
2021/05/02 00:19:06;;;;;;;9.75;8.43;;;9.80;99.90;;;;;;4988031;28;20033;-82
2021/05/02 00:21:32;;;;;;;9.68;8.75;;;9.60;99.90;;;;;;4992128;28;20511;-81
2021/05/02 00:23:58;;;;;;;9.45;8.65;;;9.60;99.90;;;;;;4978942;28;20026;-81
2021/05/02 00:26:26;;;;;;;8.23;6.85;;;9.60;99.90;;;;;;4986841;28;20153;-81
2021/05/02 00:28:53;;;;;;;11.43;7.07;;;9.60;99.90;;;;;;4992274;28;20026;-81
2021/05/02 00:31:19;;;;;;;7.75;6.93;;;9.70;99.90;;;;;;4974413;28;20485;-81
2021/05/02 00:33:45;;;;;;;10.20;8.10;;;9.70;99.90;;;;;;4992611;28;20034;-80
2021/05/02 00:36:12;;;;;;;8.07;7.30;;;9.80;99.90;;;;;;4992163;28;20105;-80
2021/05/02 00:38:40;;;;;;;9.43;8.38;;;9.60;99.90;;;;;;4993303;28;20030;-82
2021/05/02 00:41:12;;;;;;;9.70;8.30;;;9.60;99.90;;;;;;4993488;28;20049;-84
2021/05/02 00:44:04;;;;;;;12.05;9.13;;;9.80;99.90;;;;;;4993429;28;20022;-87
2021/05/02 00:46:36;;;;;;;10.38;8.70;;;9.80;99.90;;;;;;4992312;28;20106;-83
2021/05/02 00:49:46;;;;;;;9.60;8.70;;;9.60;99.90;;;;;;4974234;28;20035;-83
2021/05/02 00:52:29;;;;;;;8.77;7.88;;;9.80;99.90;;;;;;4977673;28;20511;-86
2021/05/02 00:55:04;;;;;;;10.00;7.68;;;9.70;99.90;;;;;;4992891;28;20042;-85
2021/05/02 00:57:36;;;;;;;8.73;7.93;;;9.70;99.90;;;;;;4982398;28;20022;-82
2021/05/02 01:00:10;;;;;;;8.98;8.07;;;9.60;99.90;;;;;;4992707;28;20026;-84
2021/05/02 01:02:36;;;;;;;9.50;7.45;;;9.60;99.90;;;;;;4977077;28;20125;-83
2021/05/02 01:05:12;;;;;;;9.20;7.65;;;9.70;99.90;;;;;;4993280;28;20029;-84
2021/05/02 01:07:43;;;;;;;9.70;7.32;;;9.70;99.90;;;;;;4977300;28;20101;-84
2021/05/02 01:10:15;;;;;;;7.93;7.10;;;9.40;99.90;;;;;;4973696;28;20118;-82
2021/05/02 01:12:44;;;;;;;8.13;7.32;;;9.40;99.90;;;;;;4994968;28;20056;-81
2021/05/02 01:15:12;;;;;;;7.45;6.75;;;9.50;99.90;;;;;;4978800;28;20034;-82
2021/05/02 01:17:45;;;;;;;9.82;8.07;;;9.50;99.90;;;;;;4980358;28;20400;-82
2021/05/02 01:20:14;;;;;;;9.95;8.07;;;9.20;99.90;;;;;;4988018;28;20049;-82
2021/05/02 01:22:43;;;;;;;10.37;7.47;;;9.20;99.90;;;;;;4999179;28;20038;-82
2021/05/02 01:25:11;;;;;;;9.05;7.22;;;9.20;99.90;;;;;;4980502;28;20660;-81
2021/05/02 01:27:37;;;;;;;8.05;7.25;;;9.00;99.90;;;;;;4990257;28;20062;-82
2021/05/02 01:30:08;;;;;;;8.85;7.05;;;9.20;99.90;;;;;;4999166;28;20030;-82
2021/05/02 01:32:35;;;;;;;7.18;6.47;;;9.10;99.90;;;;;;4982204;28;20019;-81
2021/05/02 01:35:02;;;;;;;9.68;6.63;;;9.00;99.90;;;;;;4994206;28;20202;-81
2021/05/02 01:37:28;;;;;;;8.35;7.25;;;8.80;99.90;;;;;;4999163;28;20028;-81
2021/05/02 01:39:54;;;;;;;8.02;7.22;;;8.80;99.90;;;;;;4996219;28;20031;-81
2021/05/02 01:42:19;;;;;;;7.38;6.68;;;8.90;99.90;;;;;;4990080;28;20054;-82
2021/05/02 01:44:46;;;;;;;6.97;5.95;;;8.50;99.90;;;;;;4999072;28;20082;-81
2021/05/02 01:47:17;;;;;;;7.10;6.40;;;8.60;99.90;;;;;;4992770;28;20041;-81
2021/05/02 01:49:48;;;;;;;8.27;6.78;;;8.50;99.90;;;;;;4978378;28;20516;-81
2021/05/02 01:52:17;;;;;;;9.82;6.82;;;8.80;99.90;;;;;;4982026;28;20101;-83
2021/05/02 01:54:44;;;;;;;8.05;6.50;;;8.60;99.90;;;;;;4998732;28;20146;-84
2021/05/02 01:57:10;;;;;;;9.68;6.95;;;8.50;99.90;;;;;;4998708;28;20084;-83
2021/05/02 01:59:37;;;;;;;7.90;7.15;;;8.50;99.90;;;;;;4988711;28;20029;-83
2021/05/02 02:02:06;;;;;;;8.15;7.35;;;8.60;99.90;;;;;;4994378;28;20166;-84
2021/05/02 02:04:34;;;;;;;11.88;8.23;;;8.60;99.90;;;;;;4998817;28;20026;-83
2021/05/02 02:07:00;;;;;;;6.80;6.03;;;8.70;99.90;;;;;;4999479;28;20030;-83
2021/05/02 02:09:28;;;;;;;9.65;6.80;;;8.70;99.90;;;;;;4995482;28;20035;-83
2021/05/02 02:11:55;;;;;;;8.48;7.28;;;8.40;99.90;;;;;;4992330;28;20511;-83
2021/05/02 02:14:23;;;;;;;13.57;9.30;;;8.40;99.90;;;;;;4981813;28;20125;-83
2021/05/02 02:16:50;;;;;;;14.27;7.18;;;8.70;99.90;;;;;;4999334;28;20030;-83
2021/05/02 02:19:15;;;;;;;12.68;6.82;;;8.90;99.90;;;;;;4993845;28;20061;-84
2021/05/02 02:21:43;;;;;;;9.73;7.60;;;8.70;99.90;;;;;;4979733;28;20393;-84
2021/05/02 02:24:12;;;;;;;7.38;6.68;;;8.70;99.90;;;;;;4983250;28;20023;-84
2021/05/02 02:26:55;;;;;;;7.28;6.57;;;8.50;99.90;;;;;;4981863;28;20038;-84
2021/05/02 02:29:22;;;;;;;8.88;6.93;;;8.70;99.90;;;;;;4995446;28;20397;-84
2021/05/02 02:31:50;;;;;;;9.57;6.95;;;8.70;99.90;;;;;;4996116;28;20061;-84
2021/05/02 02:34:18;;;;;;;6.63;5.93;;;8.60;99.90;;;;;;4995895;28;20100;-84
2021/05/02 02:36:44;;;;;;;9.07;6.72;;;8.30;99.90;;;;;;4995628;28;20034;-83
2021/05/02 02:39:10;;;;;;;9.52;6.80;;;8.30;99.90;;;;;;4994986;28;20073;-83
2021/05/02 02:41:40;;;;;;;8.88;6.55;;;8.10;99.90;;;;;;4976221;28;20433;-83
2021/05/02 02:44:09;;;;;;;9.50;5.80;;;8.00;99.90;;;;;;4976536;28;20053;-83
2021/05/02 02:46:40;;;;;;;8.07;6.72;;;8.00;99.90;;;;;;4979082;28;20058;-83
2021/05/02 02:49:10;;;;;;;9.15;6.65;;;8.10;99.90;;;;;;4976576;28;20034;-83
2021/05/02 02:51:37;;;;;;;8.10;7.07;;;8.20;99.90;;;;;;4976169;28;20511;-84
2021/05/02 02:54:06;;;;;;;9.18;7.53;;;8.20;99.90;;;;;;4974722;28;20378;-83
2021/05/02 02:56:36;;;;;;;10.55;7.18;;;7.90;99.90;;;;;;4976134;28;20485;-83
2021/05/02 02:59:08;;;;;;;9.23;7.18;;;7.90;99.90;;;;;;4974773;28;20514;-83
2021/05/02 03:01:36;;;;;;;10.13;7.57;;;7.90;99.90;;;;;;4971310;28;20050;-83
2021/05/02 03:04:09;;;;;;;9.60;7.80;;;7.80;99.90;;;;;;4986408;28;20041;-83
2021/05/02 03:06:35;;;;;;;13.10;6.82;;;7.70;99.90;;;;;;4983563;28;20031;-84
2021/05/02 03:09:01;;;;;;;64.65;8.25;;;7.70;99.90;;;;;;4976067;28;20097;-84
2021/05/02 03:11:26;;;;;;;7.25;6.38;;;7.60;99.90;;;;;;4993339;28;20027;-84
2021/05/02 03:13:56;;;;;;;7.88;6.78;;;7.50;99.90;;;;;;4995183;28;20042;-81
2021/05/02 03:16:28;;;;;;;10.32;7.18;;;7.50;99.90;;;;;;4995347;28;20026;-83
2021/05/02 03:19:20;;;;;;;12.10;8.35;;;7.30;99.90;;;;;;4994457;28;20025;-83
2021/05/02 03:22:09;;;;;;;7.80;6.68;;;7.50;99.90;;;;;;4956171;29;20020;-83
2021/05/02 03:24:45;;;;;;;9.52;7.38;;;7.60;99.90;;;;;;4974427;28;20035;-83
2021/05/02 03:27:14;;;;;;;12.73;7.00;;;7.80;99.90;;;;;;4975671;28;20038;-83
2021/05/02 03:29:45;;;;;;;11.13;7.47;;;7.60;99.90;;;;;;4975578;28;20110;-83
2021/05/02 03:32:12;;;;;;;7.38;6.68;;;7.60;99.90;;;;;;4981899;28;20034;-83
2021/05/02 03:34:43;;;;;;;29.05;7.50;;;7.50;99.90;;;;;;4990751;28;20026;-83
2021/05/02 03:37:16;;;;;;;33.50;6.50;;;7.30;99.90;;;;;;4977223;28;20125;-83
2021/05/02 03:39:47;;;;;;;19.80;7.13;;;7.40;99.90;;;;;;4977081;28;20038;-83
2021/05/02 03:42:13;;;;;;;7.65;6.90;;;7.40;99.90;;;;;;4975397;28;20047;-83
2021/05/02 03:44:39;;;;;;;7.93;6.75;;;7.50;99.90;;;;;;4974134;28;20446;-83
2021/05/02 03:47:05;;;;;;;7.45;6.75;;;7.60;99.90;;;;;;4975052;28;20480;-83
2021/05/02 03:49:31;;;;;;;11.55;6.82;;;7.70;99.90;;;;;;4985186;28;20038;-83
2021/05/02 03:51:57;;;;;;;7.70;7.00;;;7.70;99.90;;;;;;4984844;28;20030;-83
2021/05/02 03:54:23;;;;;;;7.45;6.65;;;7.90;99.90;;;;;;4993752;28;20041;-83
2021/05/02 03:56:49;;;;;;;8.25;6.97;;;7.70;99.90;;;;;;4980554;28;20039;-83
2021/05/02 03:59:26;;;;;;;10.95;7.25;;;7.70;99.90;;;;;;4974917;28;20069;-83
2021/05/02 04:01:55;;;;;;;46.03;8.07;;;7.40;99.90;;;;;;4973191;28;20054;-81
2021/05/02 04:04:22;;;;;;;18.88;7.93;;;7.40;99.90;;;;;;4987380;28;20497;-83
2021/05/02 04:06:49;;;;;;;19.10;8.73;;;7.40;99.90;;;;;;4993020;28;20484;-83
2021/05/02 04:09:16;;;;;;;15.32;7.80;;;7.20;99.90;;;;;;4993711;28;20404;-83
2021/05/02 04:11:44;;;;;;;17.98;8.00;;;7.30;99.90;;;;;;4974794;28;20030;-83
2021/05/02 04:14:12;;;;;;;68.47;9.25;;;7.10;99.90;;;;;;4974542;28;20019;-82
2021/05/02 04:16:38;;;;;;;79.57;11.05;;;7.30;99.90;;;;;;4974680;28;20113;-83
2021/05/02 04:19:06;;;;;;;219.05;15.68;;;7.30;99.90;;;;;;4989476;28;20030;-83
2021/05/02 04:21:33;;;;;;;42.92;7.25;;;7.10;99.90;;;;;;4987330;28;20105;-83
2021/05/02 04:23:59;;;;;;;7.72;6.72;;;6.90;99.90;;;;;;4981116;28;20045;-83
2021/05/02 04:26:25;;;;;;;10.75;6.07;;;6.80;99.90;;;;;;4974126;28;20030;-83
2021/05/02 04:28:51;;;;;;;8.48;6.97;;;6.80;99.90;;;;;;4989989;28;20034;-83
2021/05/02 04:31:17;;;;;;;7.55;6.78;;;6.90;99.90;;;;;;4993950;28;20030;-83
2021/05/02 04:33:44;;;;;;;48.83;8.63;;;7.00;99.90;;;;;;4993632;28;20443;-83
2021/05/02 04:36:10;;;;;;;116.95;10.30;;;6.80;99.90;;;;;;4991910;28;20022;-83
2021/05/02 04:38:36;;;;;;;59.40;7.95;;;6.80;99.90;;;;;;4984188;28;20485;-83
2021/05/02 04:41:02;;;;;;;201.70;12.57;;;6.70;99.90;;;;;;4989076;28;20400;-83
2021/05/02 04:43:28;;;;;;;74.35;7.95;;;6.60;99.90;;;;;;4993799;28;20086;-83
2021/05/02 04:45:53;;;;;;;44.83;6.95;;;6.60;99.90;;;;;;4993733;28;20027;-83
2021/05/02 04:48:19;;;;;;;16.33;6.22;;;6.70;99.90;;;;;;4992699;28;20073;-81
2021/05/02 04:50:46;;;;;;;10.98;8.23;;;6.80;99.90;;;;;;4981071;28;20046;-81
2021/05/02 04:53:12;;;;;;;77.97;10.50;;;6.90;99.90;;;;;;4988436;28;20106;-80
2021/05/02 04:55:37;;;;;;;148.27;11.85;;;6.80;99.90;;;;;;4974299;28;20429;-81
2021/05/02 04:58:05;;;;;;;128.63;9.73;;;6.60;99.90;;;;;;4975287;28;20030;-80
2021/05/02 05:00:32;;;;;;;106.82;8.52;;;6.50;99.90;;;;;;4972149;28;20025;-81
2021/05/02 05:02:58;;;;;;;67.45;8.18;;;6.60;99.90;;;;;;4984519;28;20066;-80
2021/05/02 05:05:24;;;;;;;44.10;7.13;;;6.70;99.90;;;;;;4993350;28;20026;-80
2021/05/02 05:07:50;;;;;;;79.40;7.88;;;6.80;99.90;;;;;;4987108;28;20055;-79
2021/05/02 05:10:16;;;;;;;120.47;9.55;;;7.00;99.90;;;;;;4972201;28;20113;-80
2021/05/02 05:12:43;;;;;;;195.52;10.63;;;7.10;99.90;;;;;;4993586;28;20364;-79
2021/05/02 05:15:10;;;;;;;212.50;11.10;;;7.10;99.90;;;;;;4992847;28;20019;-80
2021/05/02 05:17:36;;;;;;;111.65;8.32;;;7.10;99.90;;;;;;4980245;28;20385;-82
2021/05/02 05:20:05;;;;;;;231.32;11.73;;;7.10;99.90;;;;;;4974095;28;20046;-81
2021/05/02 05:22:31;;;;;;;70.25;9.18;;;7.20;99.90;;;;;;5006961;28;20023;-81
2021/05/02 05:24:58;;;;;;;112.90;10.40;;;7.20;99.90;;;;;;4993215;28;20035;-81
2021/05/02 05:27:24;;;;;;;91.65;9.93;;;7.10;99.90;;;;;;4993033;28;20030;-81
2021/05/02 05:29:50;;;;;;;46.50;6.85;;;7.00;99.90;;;;;;4991219;28;20564;-81
2021/05/02 05:32:23;;;;;;;84.32;5.93;;;6.90;99.90;;;;;;4984134;28;20106;-81
2021/05/02 05:34:48;;;;;;;75.25;10.35;;;6.90;99.90;;;;;;4973964;28;20030;-81
2021/05/02 05:37:14;;;;;;;103.15;33.72;;;6.90;99.90;;;;;;4973587;28;20382;-82
2021/05/02 05:39:41;;;;;;;89.82;32.10;;;7.00;99.90;;;;;;5007842;28;20054;-81
2021/05/02 05:42:08;;;;;;;69.10;9.88;;;7.10;99.90;;;;;;4986243;28;20019;-81
2021/05/02 05:44:34;;;;;;;236.40;12.73;;;7.20;99.90;;;;;;4980124;28;20101;-81
2021/05/02 05:47:00;;;;;;;102.28;12.57;;;7.30;99.90;;;;;;4986115;28;20023;-82
2021/05/02 05:49:26;;;;;;;96.35;7.82;;;7.40;99.90;;;;;;4973051;28;20077;-82
2021/05/02 05:51:53;;;;;;;63.50;7.70;;;7.40;99.90;;;;;;4973730;28;20031;-82
2021/05/02 05:54:22;;;;;;;55.95;5.75;;;7.50;99.90;;;;;;4989461;28;20500;-82
2021/05/02 05:56:48;;;;;;;57.03;12.25;;;7.50;99.90;;;;;;4981074;28;20050;-82
2021/05/02 05:59:14;;;;;;;63.38;19.70;;;7.50;99.90;;;;;;4974035;28;20027;-82
2021/05/02 06:01:40;;;;;;;14.15;5.88;;;7.50;99.90;;;;;;4976087;28;20054;-80
2021/05/02 06:04:06;;;;;;;22.33;5.32;;;7.50;99.90;;;;;;4994004;28;20015;-80
2021/05/02 06:06:36;;;;;;;41.22;21.73;;;7.70;99.90;;;;;;4980670;28;20035;-80
2021/05/02 06:09:04;;;;;;;22.05;5.65;;;7.70;99.90;;;;;;4972718;28;20031;-80
2021/05/02 06:11:30;;;;;;;19.40;6.65;;;7.70;99.90;;;;;;4972763;28;20070;-80
2021/05/02 06:13:58;;;;;;;15.63;8.73;;;7.70;99.90;;;;;;4957563;28;20054;-83
2021/05/02 06:16:24;;;;;;;12.43;5.15;;;7.80;99.90;;;;;;4980195;28;20029;-83
2021/05/02 06:18:55;;;;;;;63.35;7.47;;;7.80;99.90;;;;;;4994988;28;20026;-83
2021/05/02 06:21:21;;;;;;;52.53;9.82;;;7.80;99.90;;;;;;4982363;28;20034;-83
2021/05/02 06:23:51;;;;;;;24.13;8.32;;;7.80;99.90;;;;;;4979964;28;20027;-83
2021/05/02 06:26:21;;;;;;;14.48;5.63;;;7.80;99.90;;;;;;4990082;28;20026;-83
2021/05/02 06:28:48;;;;;;;7.87;7.07;;;7.90;99.90;;;;;;4998417;28;20029;-83
2021/05/02 06:31:15;;;;;;;10.25;9.18;;;8.10;99.90;;;;;;4984776;28;20046;-83
2021/05/02 06:33:41;;;;;;;11.70;10.32;;;8.30;99.90;;;;;;4991954;28;20033;-83
2021/05/02 06:36:08;;;;;;;11.32;10.13;;;8.50;99.90;;;;;;4994756;28;20031;-83
2021/05/02 06:38:34;;;;;;;8.75;7.85;;;8.60;99.90;;;;;;4995743;28;20053;-83
2021/05/02 06:41:00;;;;;;;9.30;8.43;;;8.70;99.90;;;;;;4996048;28;20033;-83
2021/05/02 06:43:26;;;;;;;9.70;8.00;;;8.80;99.90;;;;;;4996038;28;20018;-83
2021/05/02 06:45:51;;;;;;;8.35;7.05;;;9.00;99.90;;;;;;4986035;28;20038;-83
2021/05/02 06:48:17;;;;;;;8.00;6.88;;;9.00;99.90;;;;;;5016897;28;20038;-83
2021/05/02 06:50:43;;;;;;;6.97;5.72;;;9.10;99.90;;;;;;4981148;28;20034;-83
2021/05/02 06:53:09;;;;;;;6.53;5.97;;;9.10;99.90;;;;;;4976517;28;20054;-83
2021/05/02 06:55:35;;;;;;;7.10;5.85;;;9.20;99.90;;;;;;4976104;28;20480;-83
2021/05/02 06:58:01;;;;;;;6.10;4.93;;;9.20;99.90;;;;;;4980921;28;20063;-83
2021/05/02 07:00:28;;;;;;;6.22;5.18;;;9.00;99.90;;;;;;4994857;28;20023;-83
2021/05/02 07:02:54;;;;;;;6.68;5.18;;;9.00;99.90;;;;;;4982224;28;20519;-83
2021/05/02 07:05:21;;;;;;;5.50;5.00;;;8.80;99.90;;;;;;4995654;28;20049;-83
2021/05/02 07:07:46;;;;;;;5.40;4.90;;;8.60;99.90;;;;;;4984953;28;20023;-83
2021/05/02 07:10:12;;;;;;;5.82;4.70;;;8.70;99.90;;;;;;4974247;28;20485;-83
2021/05/02 07:12:38;;;;;;;6.72;5.40;;;8.90;99.90;;;;;;4994476;28;20088;-83
2021/05/02 07:15:05;;;;;;;4.78;4.30;;;9.10;99.90;;;;;;4983746;28;20026;-83
2021/05/02 07:17:31;;;;;;;7.28;4.45;;;9.00;99.90;;;;;;4987904;28;20038;-83
2021/05/02 07:19:58;;;;;;;5.38;4.43;;;9.00;99.90;;;;;;4979024;28;20029;-83
2021/05/02 07:22:26;;;;;;;5.60;5.10;;;9.00;99.90;;;;;;4986056;28;20015;-83
2021/05/02 07:24:52;;;;;;;5.03;4.38;;;9.20;99.90;;;;;;4985468;28;20030;-82
2021/05/02 07:27:18;;;;;;;5.95;4.15;;;9.30;99.90;;;;;;4982761;28;20516;-83
2021/05/02 07:29:44;;;;;;;8.27;4.85;;;9.50;99.90;;;;;;4994626;28;20081;-83
2021/05/02 07:32:10;;;;;;;6.47;4.05;;;9.70;99.90;;;;;;4993020;28;20030;-83
2021/05/02 07:34:35;;;;;;;4.90;3.63;;;9.80;99.90;;;;;;4988593;28;20057;-83
2021/05/02 07:37:01;;;;;;;5.30;4.18;;;9.60;99.90;;;;;;4974820;28;20027;-83
2021/05/02 07:39:27;;;;;;;6.88;4.80;;;9.80;99.90;;;;;;5006941;28;20086;-83
2021/05/02 07:41:54;;;;;;;4.47;4.05;;;9.80;99.90;;;;;;4985058;28;20544;-83
2021/05/02 07:44:20;;;;;;;5.93;4.43;;;9.60;99.90;;;;;;4993804;28;20030;-83
2021/05/02 07:46:46;;;;;;;7.53;5.00;;;9.40;99.90;;;;;;4985852;28;20085;-83
2021/05/02 07:49:12;;;;;;;5.72;5.13;;;9.60;99.90;;;;;;4975161;28;20030;-83
2021/05/02 07:51:38;;;;;;;5.85;5.28;;;9.70;99.90;;;;;;4979026;28;20105;-83
2021/05/02 07:54:04;;;;;;;6.03;5.18;;;9.80;99.90;;;;;;4994403;28;20062;-83
2021/05/02 07:56:30;;;;;;;9.75;5.38;;;10.10;99.90;;;;;;4974655;28;20020;-82
2021/05/02 07:58:56;;;;;;;5.00;4.53;;;10.40;99.90;;;;;;4969188;28;20030;-82
2021/05/02 08:01:22;;;;;;;5.13;4.63;;;10.80;99.90;;;;;;4981802;28;20043;-83
2021/05/02 08:03:47;;;;;;;5.80;4.68;;;10.80;99.90;;;;;;4974806;28;20517;-82
2021/05/02 08:06:13;;;;;;;4.82;4.43;;;10.90;99.90;;;;;;4976860;28;20031;-85
2021/05/02 08:08:39;;;;;;;6.82;5.40;;;11.10;99.90;;;;;;4987344;28;20061;-85
2021/05/02 08:11:04;;;;;;;7.00;5.15;;;11.40;99.90;;;;;;5003751;28;20022;-83
2021/05/02 08:13:30;;;;;;;7.25;5.07;;;11.60;99.90;;;;;;4995892;28;20502;-83
2021/05/02 08:15:56;;;;;;;9.18;4.75;;;11.80;99.90;;;;;;4977329;28;20051;-83
2021/05/02 08:18:22;;;;;;;7.70;4.85;;;11.90;99.90;;;;;;4991669;28;20030;-83
2021/05/02 08:20:47;;;;;;;9.02;5.22;;;11.70;99.90;;;;;;4994639;28;20034;-83
2021/05/02 08:23:13;;;;;;;9.75;4.70;;;11.00;99.90;;;;;;4992305;28;20030;-83
2021/05/02 08:25:40;;;;;;;8.13;5.43;;;10.80;99.90;;;;;;4967985;28;20490;-84
2021/05/02 08:28:07;;;;;;;10.30;5.22;;;10.90;99.90;;;;;;4982658;28;20113;-84
2021/05/02 08:30:33;;;;;;;5.18;4.20;;;10.80;99.90;;;;;;4977157;28;20031;-87
2021/05/02 08:33:00;;;;;;;5.45;4.60;;;10.20;99.90;;;;;;4989463;28;20049;-83
2021/05/02 08:35:25;;;;;;;4.95;3.67;;;11.30;99.90;;;;;;4986189;28;20401;-85
2021/05/02 08:37:51;;;;;;;7.07;3.42;;;11.70;99.90;;;;;;4985694;28;20037;-86
2021/05/02 08:40:17;;;;;;;5.80;3.33;;;11.90;99.90;;;;;;4981682;28;20046;-86
2021/05/02 08:42:43;;;;;;;4.82;3.13;;;11.50;99.90;;;;;;4976196;28;20038;-85
2021/05/02 08:45:10;;;;;;;7.78;4.53;;;11.00;99.90;;;;;;4976975;28;20081;-84
2021/05/02 08:47:37;;;;;;;5.80;3.70;;;11.30;99.90;;;;;;4982001;28;20042;-84
2021/05/02 08:50:08;;;;;;;3.45;3.17;;;11.70;99.90;;;;;;4981289;28;20034;-84
2021/05/02 08:52:35;;;;;;;3.53;3.05;;;11.80;99.90;;;;;;4982665;28;20050;-85
2021/05/02 08:55:01;;;;;;;6.82;3.40;;;11.00;99.90;;;;;;4980419;28;20106;-85
2021/05/02 08:57:27;;;;;;;5.32;3.17;;;11.00;99.90;;;;;;4978164;28;20031;-85
2021/05/02 08:59:52;;;;;;;3.40;2.95;;;11.90;99.90;;;;;;4990524;28;20022;-85
2021/05/02 09:02:26;;;;;;;4.30;3.10;;;13.00;99.90;;;;;;4971501;28;20464;-85
2021/05/02 09:04:56;;;;;;;3.83;3.20;;;13.80;99.90;;;;;;4978396;28;20027;-85
2021/05/02 09:07:22;;;;;;;2.72;2.47;;;15.10;99.90;;;;;;4981849;28;20103;-85
2021/05/02 09:09:50;;;;;;;5.22;3.03;;;14.70;99.90;;;;;;4985809;28;21434;-86
2021/05/02 09:12:24;;;;;;;5.68;3.20;;;14.10;99.90;;;;;;4987135;28;20026;-85
2021/05/02 09:14:50;;;;;;;4.07;2.58;;;13.10;99.90;;;;;;4977192;28;20527;-85
2021/05/02 09:17:27;;;;;;;4.05;2.65;;;12.50;99.90;;;;;;4973924;28;20034;-86
2021/05/02 09:19:56;;;;;;;3.17;2.88;;;12.40;99.90;;;;;;4982207;28;20010;-85
2021/05/02 09:22:23;;;;;;;3.63;3.13;;;12.30;99.90;;;;;;4984414;28;20023;-85
2021/05/02 09:25:04;;;;;;;3.65;3.30;;;12.40;99.90;;;;;;4983760;28;20389;-83
2021/05/02 09:27:30;;;;;;;6.63;3.67;;;13.00;99.90;;;;;;4986024;28;20396;-84
2021/05/02 09:30:13;;;;;;;3.05;2.80;;;12.90;99.90;;;;;;4982851;28;20497;-83
2021/05/02 09:32:48;;;;;;;4.80;2.72;;;13.30;99.90;;;;;;4978150;28;20416;-82
2021/05/02 09:35:28;;;;;;;3.42;2.03;;;13.90;99.90;;;;;;4980499;28;20097;-83
2021/05/02 09:38:14;;;;;;;5.25;2.00;;;13.40;99.90;;;;;;4981703;28;20117;-81
2021/05/02 09:40:44;;;;;;;2.38;2.05;;;15.20;99.90;;;;;;4984184;28;20042;-81
2021/05/02 09:43:31;;;;;;;6.60;2.20;;;17.60;99.90;;;;;;4986146;28;20458;-83
2021/05/02 09:46:25;;;;;;;2.67;2.08;;;19.40;99.10;;;;;;4983478;28;20399;-82
2021/05/02 09:49:09;;;;;;;3.70;2.40;;;19.00;77.90;;;;;;4977678;28;20050;-83
2021/05/02 09:51:37;;;;;;;5.88;2.00;;;21.30;83.30;;;;;;4976210;28;20023;-82
2021/05/02 09:54:04;;;;;;;2.88;2.03;;;20.60;80.60;;;;;;4975430;28;20437;-81
2021/05/02 09:56:35;;;;;;;1.90;1.80;;;22.20;71.50;;;;;;4977334;28;20393;-84
2021/05/02 09:59:02;;;;;;;3.85;2.72;;;24.20;78.00;;;;;;4984250;28;20487;-87
2021/05/02 10:01:28;;;;;;;4.40;2.42;;;23.00;60.80;;;;;;4983522;28;20047;-87
2021/05/02 10:03:55;;;;;;;2.78;2.50;;;22.50;71.50;;;;;;4983662;28;20042;-86
2021/05/02 10:06:35;;;;;;;2.17;1.95;;;24.60;68.00;;;;;;4986227;28;20038;-80
2021/05/02 10:09:06;;;;;;;;;;;27.30;66.70;;;;;;4989898;28;20484;-84
2021/05/02 10:11:33;;;;;;;3.63;2.05;;;23.70;55.90;;;;;;4985840;28;19918;-83
2021/05/02 10:14:00;;;;;;;2.17;1.98;;;24.00;59.00;;;;;;4990726;28;20011;-83
2021/05/02 10:16:28;;;;;;;3.67;2.30;;;25.30;64.30;;;;;;4989015;28;20026;-83
2021/05/02 10:18:53;;;;;;;3.15;1.95;;;27.00;56.90;;;;;;4977504;28;20030;-82
2021/05/02 10:21:19;;;;;;;4.03;2.28;;;27.30;62.80;;;;;;4977385;28;20452;-83
2021/05/02 10:23:45;;;;;;;3.75;2.53;;;25.80;69.90;;;;;;4976792;28;20026;-83
2021/05/02 10:26:11;;;;;;;2.72;2.50;;;24.70;63.10;;;;;;4969040;28;20031;-83
2021/05/02 10:28:38;;;;;;;2.53;1.77;;;22.20;85.40;;;;;;4985989;28;20056;-83
2021/05/02 10:31:07;;;;;;;1.58;1.45;;;21.00;83.50;;;;;;4986392;28;20113;-87
2021/05/02 10:33:35;;;;;;;5.10;2.20;;;19.40;94.90;;;;;;4982534;28;20093;-79
2021/05/02 10:36:06;;;;;;;2.97;1.48;;;21.30;95.40;;;;;;4979968;28;20046;-80
2021/05/02 10:38:44;;;;;;;4.05;1.60;;;20.80;83.90;;;;;;4978458;28;20042;-80
2021/05/02 10:41:28;;;;;;;2.35;1.40;;;18.60;91.40;;;;;;4977052;28;20107;-79
2021/05/02 10:43:57;;;;;;;2.42;1.23;;;17.00;93.10;;;;;;4974944;28;20022;-80
2021/05/02 10:46:41;;;;;;;2.25;1.20;;;16.30;99.10;;;;;;4978981;28;20050;-78
2021/05/02 10:49:08;;;;;;;1.45;1.20;;;15.80;91.90;;;;;;4985306;28;20450;-79
2021/05/02 10:51:34;;;;;;;1.88;1.30;;;15.80;93.60;;;;;;4973690;28;20125;-78
2021/05/02 10:54:07;;;;;;;2.35;1.40;;;16.10;97.70;;;;;;4983211;28;20094;-78
2021/05/02 10:56:53;;;;;;;2.22;1.23;;;15.90;98.30;;;;;;4982241;28;20113;-81
2021/05/02 10:59:24;;;;;;;1.92;1.50;;;17.30;97.60;;;;;;4981453;28;20033;-84
2021/05/02 11:01:50;;;;;;;3.63;1.85;;;18.30;73.00;;;;;;4979543;28;20050;-80
2021/05/02 11:04:16;;;;;;;2.08;1.80;;;18.90;88.30;;;;;;4982150;28;20081;-79
2021/05/02 11:06:45;;;;;;;4.00;1.98;;;18.00;92.00;;;;;;4984747;28;20085;-86
2021/05/02 11:09:13;;;;;;;3.33;2.40;;;16.50;99.90;;;;;;4989057;28;20302;-85
2021/05/02 11:11:45;;;;;;;3.85;2.25;;;15.90;99.90;;;;;;4984134;28;20026;-84
2021/05/02 11:14:15;;;;;;;3.95;1.48;;;15.60;99.90;;;;;;4981335;28;20117;-78
2021/05/02 11:16:45;;;;;;;3.95;1.92;;;15.30;99.90;;;;;;4981226;28;20070;-77
2021/05/02 11:19:13;;;;;;;3.92;2.03;;;14.60;99.90;;;;;;4990473;28;20386;-79
2021/05/02 11:22:06;;;;;;;3.30;1.70;;;14.50;99.90;;;;;;4979741;28;20094;-80
2021/05/02 11:24:52;;;;;;;4.20;2.45;;;14.40;99.90;;;;;;4985878;28;20030;-79
2021/05/02 11:27:39;;;;;;;3.47;2.42;;;14.40;99.90;;;;;;4979041;28;20026;-82
2021/05/02 11:30:07;;;;;;;4.65;1.90;;;14.30;99.90;;;;;;4983368;28;20394;-81
2021/05/02 11:32:40;;;;;;;4.10;1.80;;;14.70;99.90;;;;;;4983078;28;20034;-79
2021/05/02 11:35:07;;;;;;;1.33;1.30;;;14.80;99.90;;;;;;4980899;28;20027;-77
2021/05/02 11:37:45;;;;;;;2.15;1.80;;;14.90;99.90;;;;;;4977695;28;20126;-78
2021/05/02 11:40:30;;;;;;;1.48;1.35;;;15.60;99.90;;;;;;4991901;28;20034;-78
2021/05/02 11:43:09;;;;;;;1.98;1.58;;;15.70;96.10;;;;;;4991518;28;20087;-78
2021/05/02 11:45:59;;;;;;;3.92;2.35;;;17.20;84.40;;;;;;4977629;28;20533;-78
2021/05/02 11:48:33;;;;;;;3.60;1.73;;;17.70;93.40;;;;;;4973230;28;20065;-77
2021/05/02 11:51:01;;;;;;;3.35;1.67;;;18.30;92.40;;;;;;4977106;28;20398;-78
2021/05/02 11:53:48;;;;;;;1.92;1.40;;;18.70;95.70;;;;;;4978947;28;20053;-78
2021/05/02 11:56:22;;;;;;;5.35;1.83;;;18.30;88.50;;;;;;4983643;28;20109;-78
2021/05/02 11:58:50;;;;;;;2.28;1.35;;;18.30;82.70;;;;;;4974270;28;20030;-78
2021/05/02 12:01:22;;;;;;;1.80;1.40;;;18.90;89.00;;;;;;4967120;28;20058;-78
2021/05/02 12:03:48;;;;;;;1.90;1.70;;;18.90;81.30;;;;;;4986448;28;20019;-77
2021/05/02 12:06:40;;;;;;;2.38;1.63;;;19.00;94.10;;;;;;4980995;28;20019;-78
2021/05/02 12:09:19;;;;;;;2.55;1.35;;;18.60;82.90;;;;;;4975774;28;20073;-78
2021/05/02 12:11:52;;;;;;;1.77;1.23;;;17.60;78.00;;;;;;4979033;28;20027;-78
2021/05/02 12:14:22;;;;;;;5.97;2.45;;;17.20;77.10;;;;;;4977330;28;20045;-79
2021/05/02 12:16:53;;;;;;;2.60;1.60;;;16.80;94.60;;;;;;4981049;28;20112;-77
2021/05/02 12:19:19;;;;;;;2.67;1.63;;;17.20;92.20;;;;;;4982331;28;20118;-77
2021/05/02 12:21:46;;;;;;;2.00;1.90;;;16.90;96.60;;;;;;4973358;28;20029;-80
2021/05/02 12:24:25;;;;;;;7.32;2.00;;;16.50;99.90;;;;;;4973157;28;20547;-86
2021/05/02 12:27:10;;;;;;;1.90;1.80;;;16.80;99.90;;;;;;4980644;28;20400;-83
2021/05/02 12:29:37;;;;;;;2.63;1.40;;;16.60;95.80;;;;;;4971536;28;20031;-84
2021/05/02 12:32:04;;;;;;;4.82;1.67;;;16.50;99.90;;;;;;4977080;28;20447;-83
2021/05/02 12:34:32;;;;;;;2.92;2.03;;;16.00;99.90;;;;;;4977119;28;20121;-83
2021/05/02 12:37:13;;;;;;;3.58;1.92;;;15.50;99.90;;;;;;4977773;28;20513;-82
2021/05/02 12:39:40;;;;;;;3.58;2.40;;;15.20;99.90;;;;;;4978076;28;20038;-82
2021/05/02 12:42:07;;;;;;;2.40;2.05;;;14.80;99.90;;;;;;4977878;28;20100;-82
2021/05/02 12:44:35;;;;;;;4.75;2.63;;;14.80;99.90;;;;;;4975657;28;20031;-82
2021/05/02 12:47:27;;;;;;;2.17;1.83;;;14.60;99.90;;;;;;4973356;28;20035;-82
2021/05/02 12:49:57;;;;;;;2.83;1.95;;;14.70;99.90;;;;;;4973778;28;20030;-82
2021/05/02 12:52:35;;;;;;;2.85;2.05;;;14.80;99.90;;;;;;4973100;28;20397;-82
2021/05/02 12:55:20;;;;;;;5.30;2.20;;;14.60;99.90;;;;;;4973296;28;20408;-82
2021/05/02 12:58:00;;;;;;;1.85;1.60;;;14.80;99.90;;;;;;4974059;28;20034;-81
2021/05/02 13:00:37;;;;;;;2.40;1.98;;;14.60;99.90;;;;;;4990120;28;20096;-81
2021/05/02 13:03:40;;;;;;;2.75;2.13;;;15.00;99.90;;;;;;4992817;28;20354;-82